createdAt,value
2022-10-22T00:00:53.042Z,23.00
2022-10-22T00:03:42.864Z,22.60
2022-10-22T00:06:18.373Z,23.50
2022-10-22T00:08:53.972Z,24.10
2022-10-22T00:11:29.454Z,23.50
2022-10-22T00:14:05.492Z,23.60
2022-10-22T00:16:41.101Z,25.00
2022-10-22T00:19:16.686Z,22.70
2022-10-22T00:21:52.137Z,24.90
2022-10-22T00:24:27.586Z,24.90
2022-10-22T00:27:03.380Z,24.60
2022-10-22T00:29:39.836Z,24.80
2022-10-22T00:32:15.399Z,24.90
2022-10-22T00:34:50.820Z,24.80
2022-10-22T00:37:26.281Z,25.30
2022-10-22T00:40:01.687Z,25.10
2022-10-22T00:42:37.594Z,25.80
2022-10-22T00:45:18.299Z,25.90
2022-10-22T00:47:56.577Z,25.10
2022-10-22T00:50:34.403Z,25.50
2022-10-22T00:53:11.724Z,24.30
2022-10-22T00:55:48.540Z,25.10
2022-10-22T00:58:25.766Z,23.50
2022-10-22T01:01:01.370Z,24.90
2022-10-22T01:03:36.935Z,22.60
2022-10-22T01:06:15.346Z,23.60
2022-10-22T01:08:55.655Z,24.60
2022-10-22T01:11:36.169Z,24.80
2022-10-22T01:14:16.763Z,23.00
2022-10-22T01:16:56.056Z,23.90
2022-10-22T01:19:37.503Z,23.00
2022-10-22T01:22:17.768Z,24.40
2022-10-22T01:24:58.079Z,22.40
2022-10-22T01:27:37.949Z,22.70
2022-10-22T01:30:14.319Z,22.10
2022-10-22T01:32:51.354Z,24.70
2022-10-22T01:35:29.105Z,23.50
2022-10-22T01:38:07.544Z,23.50
2022-10-22T01:40:44.029Z,20.90
2022-10-22T01:43:19.749Z,20.60
2022-10-22T01:45:57.608Z,22.10
2022-10-22T01:48:36.899Z,20.20
2022-10-22T01:51:19.964Z,20.40
2022-10-22T01:54:01.600Z,19.90
2022-10-22T01:56:45.905Z,20.90
2022-10-22T01:59:27.889Z,19.20
2022-10-22T02:02:05.976Z,18.90
2022-10-22T02:04:44.563Z,19.90
2022-10-22T02:07:22.407Z,21.30
2022-10-22T02:09:58.645Z,20.50
2022-10-22T02:12:35.106Z,18.70
2022-10-22T02:15:12.079Z,19.20
2022-10-22T02:17:48.168Z,19.80
2022-10-22T02:20:26.058Z,19.40
2022-10-22T02:23:01.705Z,18.10
2022-10-22T02:25:37.968Z,19.30
2022-10-22T02:28:15.147Z,19.40
2022-10-22T02:30:54.041Z,20.70
2022-10-22T02:33:31.253Z,21.10
2022-10-22T02:36:08.236Z,18.60
2022-10-22T02:38:44.074Z,19.40
2022-10-22T02:41:19.817Z,21.10
2022-10-22T02:43:56.746Z,20.30
2022-10-22T02:46:32.264Z,19.90
2022-10-22T02:49:08.116Z,19.50
2022-10-22T02:51:43.756Z,20.20
2022-10-22T02:54:19.214Z,21.80
2022-10-22T02:56:54.603Z,21.10
2022-10-22T02:59:30.414Z,20.60
2022-10-22T03:02:05.840Z,22.50
2022-10-22T03:04:41.294Z,20.90
2022-10-22T03:07:18.137Z,20.80
2022-10-22T03:09:53.638Z,21.60
2022-10-22T03:12:29.012Z,21.20
2022-10-22T03:15:04.862Z,20.90
2022-10-22T03:17:40.613Z,20.50
2022-10-22T03:20:16.326Z,22.20
2022-10-22T03:22:51.827Z,22.40
2022-10-22T03:25:28.196Z,21.20
2022-10-22T03:28:06.202Z,21.70
2022-10-22T03:30:41.728Z,22.10
2022-10-22T03:33:17.154Z,21.80
2022-10-22T03:35:52.627Z,20.90
2022-10-22T03:38:28.213Z,22.50
2022-10-22T03:41:04.029Z,23.00
2022-10-22T03:43:40.930Z,23.00
2022-10-22T03:46:16.382Z,23.00
2022-10-22T03:48:51.898Z,24.70
2022-10-22T03:51:29.211Z,23.60
2022-10-22T03:54:04.693Z,25.40
2022-10-22T03:56:40.110Z,25.30
2022-10-22T03:59:15.603Z,24.30
2022-10-22T04:01:51.112Z,25.00
2022-10-22T04:04:26.510Z,25.10
2022-10-22T04:07:01.970Z,25.00
2022-10-22T04:09:37.449Z,25.40
2022-10-22T04:12:12.992Z,26.20
2022-10-22T04:14:48.704Z,26.70
2022-10-22T04:17:24.178Z,25.20
2022-10-22T04:19:59.616Z,27.20
2022-10-22T04:22:36.214Z,26.40
2022-10-22T04:25:12.116Z,26.20
2022-10-22T04:27:47.587Z,26.50
2022-10-22T04:30:23.048Z,26.20
2022-10-22T04:32:58.528Z,26.70
2022-10-22T04:35:33.985Z,27.10
2022-10-22T04:38:09.427Z,27.60
2022-10-22T04:40:44.995Z,26.60
2022-10-22T04:43:20.450Z,25.80
2022-10-22T04:48:31.215Z,24.90
2022-10-22T04:51:07.361Z,26.00
2022-10-22T04:53:42.805Z,26.20
2022-10-22T04:56:20.815Z,26.60
2022-10-22T04:58:57.297Z,25.90
2022-10-22T05:01:36.938Z,26.50
2022-10-22T05:04:16.668Z,26.50
2022-10-22T05:06:52.829Z,25.00
2022-10-22T05:09:28.302Z,26.10
2022-10-22T05:12:03.726Z,27.80
2022-10-22T05:14:42.645Z,24.70
2022-10-22T05:17:20.190Z,25.50
2022-10-22T05:19:55.608Z,27.30
2022-10-22T05:22:31.127Z,28.20
2022-10-22T05:25:07.231Z,25.60
2022-10-22T05:27:42.858Z,26.50
2022-10-22T05:30:18.545Z,25.10
2022-10-22T05:32:54.068Z,25.00
2022-10-22T05:35:29.573Z,25.40
2022-10-22T05:38:05.029Z,25.20
2022-10-22T05:40:40.722Z,25.10
2022-10-22T05:43:16.230Z,27.40
2022-10-22T05:45:51.725Z,26.50
2022-10-22T05:48:27.237Z,28.10
2022-10-22T05:51:05.687Z,28.00
2022-10-22T05:53:42.008Z,27.30
2022-10-22T05:56:17.755Z,27.30
2022-10-22T05:58:53.344Z,26.80
2022-10-22T06:01:30.369Z,27.30
2022-10-22T06:04:07.937Z,27.30
2022-10-22T06:06:45.517Z,27.80
2022-10-22T06:09:23.874Z,26.30
2022-10-22T06:12:00.683Z,24.70
2022-10-22T06:14:36.722Z,25.90
2022-10-22T06:17:13.082Z,26.00
2022-10-22T06:19:48.756Z,30.10
2022-10-22T06:22:24.218Z,28.60
2022-10-22T06:24:59.834Z,26.50
2022-10-22T06:27:39.166Z,23.20
2022-10-22T06:30:15.257Z,30.80
2022-10-22T06:32:50.658Z,29.70
2022-10-22T06:35:26.381Z,30.50
2022-10-22T06:38:02.348Z,29.00
2022-10-22T06:40:38.870Z,25.80
2022-10-22T06:43:15.843Z,24.80
2022-10-22T06:45:51.378Z,25.10
2022-10-22T06:48:26.985Z,27.00
2022-10-22T06:51:04.206Z,25.50
2022-10-22T06:53:40.837Z,25.80
2022-10-22T06:56:17.496Z,27.20
2022-10-22T06:58:54.382Z,29.50
2022-10-22T07:01:33.063Z,28.50
2022-10-22T07:04:10.112Z,26.90
2022-10-22T07:06:45.906Z,26.10
2022-10-22T07:09:21.482Z,26.00
2022-10-22T07:11:57.359Z,24.70
2022-10-22T07:14:33.079Z,25.40
2022-10-22T07:17:08.954Z,25.60
2022-10-22T07:19:47.157Z,23.50
2022-10-22T07:25:01.608Z,23.20
2022-10-22T07:27:39.906Z,23.00
2022-10-22T07:30:17.463Z,21.30
2022-10-22T07:32:53.395Z,22.30
2022-10-22T07:35:28.942Z,20.70
2022-10-22T07:38:04.886Z,22.30
2022-10-22T07:40:40.665Z,22.20
2022-10-22T07:43:16.378Z,21.80
2022-10-22T07:45:52.397Z,22.90
2022-10-22T07:48:28.210Z,24.30
2022-10-22T07:51:04.642Z,25.40
2022-10-22T07:53:40.674Z,26.40
2022-10-22T07:56:16.513Z,26.50
2022-10-22T07:58:52.761Z,27.60
2022-10-22T08:01:28.794Z,27.80
2022-10-22T08:04:04.339Z,27.20
2022-10-22T08:06:44.535Z,29.30
2022-10-22T08:09:23.177Z,26.80
2022-10-22T08:12:02.993Z,27.10
2022-10-22T08:14:39.359Z,27.00
2022-10-22T08:17:15.340Z,28.40
2022-10-22T08:19:50.958Z,26.50
2022-10-22T08:22:27.374Z,28.80
2022-10-22T08:25:03.646Z,26.50
2022-10-22T08:27:39.694Z,29.20
2022-10-22T08:30:16.214Z,30.80
2022-10-22T08:32:54.143Z,28.30
2022-10-22T08:35:30.339Z,30.90
2022-10-22T08:38:06.729Z,31.00
2022-10-22T08:40:42.557Z,29.30
2022-10-22T08:43:26.095Z,29.70
2022-10-22T08:46:06.934Z,29.90
2022-10-22T08:48:45.990Z,32.70
2022-10-22T08:51:22.818Z,30.30
2022-10-22T08:54:08.258Z,27.20
2022-10-22T08:56:46.601Z,25.40
2022-10-22T08:59:24.442Z,23.00
2022-10-22T09:02:00.720Z,23.40
2022-10-22T09:04:41.779Z,22.20
2022-10-22T09:07:17.410Z,20.40
2022-10-22T09:09:55.783Z,20.90
2022-10-22T09:12:31.236Z,19.70
2022-10-22T09:15:07.314Z,24.20
2022-10-22T09:17:47.678Z,25.30
2022-10-22T09:20:26.421Z,23.00
2022-10-22T09:23:06.776Z,26.20
2022-10-22T09:25:43.455Z,26.50
2022-10-22T09:28:19.038Z,25.90
2022-10-22T09:30:54.595Z,28.70
2022-10-22T09:33:33.051Z,26.90
2022-10-22T09:36:09.214Z,29.00
2022-10-22T09:38:48.477Z,31.80
2022-10-22T09:41:25.067Z,26.20
2022-10-22T09:44:00.679Z,26.20
2022-10-22T09:46:44.082Z,24.20
2022-10-22T09:49:21.075Z,23.30
2022-10-22T09:51:57.405Z,22.60
2022-10-22T09:54:41.512Z,22.20
2022-10-22T09:57:19.119Z,23.50
2022-10-22T09:59:57.607Z,22.40
2022-10-22T10:02:38.576Z,23.30
2022-10-22T10:05:20.955Z,22.30
2022-10-22T10:07:57.091Z,22.50
2022-10-22T10:10:36.444Z,22.30
2022-10-22T10:13:19.910Z,21.20
2022-10-22T10:15:57.700Z,20.30
2022-10-22T10:18:41.454Z,20.70
2022-10-22T10:21:22.319Z,19.80
2022-10-22T10:24:03.003Z,21.70
2022-10-22T10:26:41.077Z,21.90
2022-10-22T10:29:25.711Z,22.50
2022-10-22T10:32:07.914Z,19.20
2022-10-22T10:34:47.585Z,22.10
2022-10-22T10:37:24.822Z,24.20
2022-10-22T10:40:06.393Z,25.90
2022-10-22T10:42:44.539Z,24.30
2022-10-22T10:45:25.124Z,23.70
2022-10-22T10:48:17.219Z,24.80
2022-10-22T10:51:01.302Z,23.30
2022-10-22T10:53:46.794Z,22.80
2022-10-22T10:56:28.953Z,23.40
2022-10-22T10:59:09.629Z,22.30
2022-10-22T11:01:49.862Z,22.20
2022-10-22T11:04:39.016Z,23.90
2022-10-22T11:07:33.443Z,25.00
2022-10-22T11:10:13.611Z,24.50
2022-10-22T11:12:51.597Z,24.40
2022-10-22T11:15:29.541Z,25.30
2022-10-22T11:18:08.041Z,26.40
2022-10-22T11:20:49.617Z,28.30
2022-10-22T11:23:29.599Z,27.00
2022-10-22T11:26:05.534Z,25.00
2022-10-22T11:28:42.581Z,22.80
2022-10-22T11:31:18.636Z,26.30
2022-10-22T11:34:04.905Z,22.90
2022-10-22T11:36:51.691Z,31.50
2022-10-22T11:39:33.475Z,29.40
2022-10-22T11:42:11.829Z,33.80
2022-10-22T11:45:00.037Z,23.70
2022-10-22T11:47:36.364Z,22.40
2022-10-22T11:50:22.985Z,36.60
2022-10-22T11:53:04.036Z,37.10
2022-10-22T11:55:49.297Z,20.60
2022-10-22T11:58:35.810Z,19.50
2022-10-22T12:04:18.849Z,18.20
2022-10-22T12:07:02.128Z,18.90
2022-10-22T12:09:41.808Z,18.40
2022-10-22T12:12:17.350Z,19.50
2022-10-22T12:14:57.950Z,17.60
2022-10-22T12:17:33.704Z,16.60
2022-10-22T12:20:13.728Z,15.90
2022-10-22T12:22:49.452Z,13.70
2022-10-22T12:25:25.881Z,14.90
2022-10-22T12:28:01.590Z,13.70
2022-10-22T12:30:38.027Z,12.40
2022-10-22T12:33:21.354Z,11.50
2022-10-22T12:35:58.220Z,10.60
2022-10-22T12:38:34.354Z,13.10
2022-10-22T12:41:12.366Z,10.90
2022-10-22T12:43:51.568Z,9.60
2022-10-22T12:46:28.613Z,6.50
2022-10-22T12:49:05.762Z,6.50
2022-10-22T12:51:41.360Z,6.20
2022-10-22T12:54:22.910Z,5.90
2022-10-22T12:57:00.583Z,6.20
2022-10-22T12:59:38.198Z,4.90
2022-10-22T13:02:22.726Z,5.60
2022-10-22T13:05:22.493Z,4.70
2022-10-22T13:08:04.268Z,4.50
2022-10-22T13:10:40.838Z,4.80
2022-10-22T13:16:16.830Z,5.20
2022-10-22T13:18:52.467Z,5.30
2022-10-22T13:21:31.097Z,4.70
2022-10-22T13:24:20.887Z,5.10
2022-10-22T13:26:58.837Z,5.50
2022-10-22T13:29:34.355Z,4.90
2022-10-22T13:32:23.518Z,5.30
2022-10-22T13:35:00.607Z,6.40
2022-10-22T13:37:38.213Z,5.60
2022-10-22T13:40:15.334Z,5.90
2022-10-22T13:42:50.519Z,6.10
2022-10-22T13:45:25.891Z,5.60
2022-10-22T13:48:01.034Z,6.10
2022-10-22T13:50:36.240Z,7.50
2022-10-22T13:53:18.917Z,6.70
2022-10-22T13:55:54.519Z,8.20
2022-10-22T13:58:29.903Z,8.60
2022-10-22T14:01:09.422Z,9.00
2022-10-22T14:03:45.286Z,8.40
2022-10-22T14:06:21.177Z,8.70
2022-10-22T14:08:58.499Z,9.40
2022-10-22T14:11:35.274Z,10.70
2022-10-22T14:14:14.422Z,11.50
2022-10-22T14:16:49.979Z,13.00
2022-10-22T14:19:25.412Z,12.30
2022-10-22T14:22:00.764Z,12.30
2022-10-22T14:24:35.959Z,12.60
2022-10-22T14:27:12.263Z,14.70
2022-10-22T14:29:47.386Z,13.50
2022-10-22T14:32:22.553Z,14.90
2022-10-22T14:34:59.606Z,16.40
2022-10-22T14:37:34.788Z,16.80
2022-10-22T14:40:12.514Z,17.90
2022-10-22T14:42:48.382Z,15.80
2022-10-22T14:45:24.474Z,15.10
2022-10-22T14:48:00.123Z,15.00
2022-10-22T14:50:35.465Z,16.60
2022-10-22T14:53:10.577Z,17.80
2022-10-22T14:55:47.502Z,16.70
2022-10-22T14:58:22.890Z,16.50
2022-10-22T15:00:58.575Z,18.20
2022-10-22T15:03:33.737Z,16.40
2022-10-22T15:06:09.084Z,15.90
2022-10-22T15:08:45.675Z,16.60
2022-10-22T15:11:22.223Z,16.20
2022-10-22T15:14:00.143Z,19.40
2022-10-22T15:16:35.475Z,18.70
2022-10-22T15:19:11.205Z,17.30
2022-10-22T15:21:46.375Z,17.70
2022-10-22T15:24:21.558Z,18.20
2022-10-22T15:26:57.538Z,15.70
2022-10-22T15:29:33.520Z,18.20
2022-10-22T15:32:10.488Z,17.40
2022-10-22T15:34:45.741Z,19.00
2022-10-22T15:37:21.058Z,17.60
2022-10-22T15:39:56.236Z,18.80
2022-10-22T15:42:31.513Z,21.10
2022-10-22T15:45:09.018Z,19.10
2022-10-22T15:47:47.622Z,19.20
2022-10-22T15:50:23.554Z,21.40
2022-10-22T15:52:59.058Z,19.50
2022-10-22T15:55:34.320Z,20.30
2022-10-22T15:58:09.820Z,19.50
2022-10-22T16:00:45.032Z,19.40
2022-10-22T16:03:20.426Z,21.10
2022-10-22T16:05:57.251Z,20.90
2022-10-22T16:08:32.604Z,21.10
2022-10-22T16:11:08.042Z,21.20
2022-10-22T16:13:43.151Z,23.00
2022-10-22T16:16:18.243Z,21.10
2022-10-22T16:18:54.027Z,23.90
2022-10-22T16:21:29.487Z,25.90
2022-10-22T16:24:06.349Z,30.20
2022-10-22T16:26:41.842Z,28.50
2022-10-22T16:29:17.372Z,23.20
2022-10-22T16:31:52.507Z,23.40
2022-10-22T16:34:28.798Z,24.00
2022-10-22T16:37:10.073Z,22.80
2022-10-22T16:39:55.018Z,22.10
2022-10-22T16:42:30.619Z,24.30
2022-10-22T16:45:06.384Z,23.20
2022-10-22T16:47:43.123Z,22.70
2022-10-22T16:50:18.589Z,23.40
2022-10-22T16:52:53.747Z,21.50
2022-10-22T16:55:29.203Z,24.10
2022-10-22T16:58:04.397Z,22.30
2022-10-22T17:00:39.541Z,22.20
2022-10-22T17:03:17.275Z,22.20
2022-10-22T17:05:52.456Z,22.90
2022-10-22T17:08:27.574Z,21.70
2022-10-22T17:11:06.235Z,25.10
2022-10-22T17:13:42.520Z,23.40
2022-10-22T17:16:18.970Z,25.30
2022-10-22T17:18:54.630Z,24.60
2022-10-22T17:21:29.988Z,24.80
2022-10-22T17:24:05.431Z,24.40
2022-10-22T17:26:40.775Z,23.50
2022-10-22T17:29:16.854Z,21.60
2022-10-22T17:31:52.687Z,22.40
2022-10-22T17:34:30.620Z,22.10
2022-10-22T17:37:05.994Z,22.10
2022-10-22T17:39:41.424Z,21.40
2022-10-22T17:42:16.710Z,26.00
2022-10-22T17:44:52.137Z,23.60
2022-10-22T17:47:27.414Z,23.20
2022-10-22T17:50:02.574Z,24.20
2022-10-22T17:52:37.721Z,26.20
2022-10-22T17:55:13.234Z,25.10
2022-10-22T17:57:48.416Z,24.40
2022-10-22T18:00:23.689Z,23.30
2022-10-22T18:02:59.442Z,25.10
2022-10-22T18:05:34.769Z,24.70
2022-10-22T18:08:09.920Z,24.30
2022-10-22T18:10:45.223Z,23.00
2022-10-22T18:13:21.005Z,24.00
2022-10-22T18:15:59.067Z,23.70
2022-10-22T18:18:36.934Z,24.00
2022-10-22T18:21:12.059Z,24.90
2022-10-22T18:23:47.640Z,24.70
2022-10-22T18:26:25.985Z,23.00
2022-10-22T18:29:02.358Z,23.90
2022-10-22T18:31:37.464Z,25.40
2022-10-22T18:34:12.788Z,24.50
2022-10-22T18:36:48.008Z,25.10
2022-10-22T18:39:23.179Z,24.60
2022-10-22T18:41:58.318Z,24.90
2022-10-22T18:44:34.504Z,27.00
2022-10-22T18:47:09.702Z,27.70
2022-10-22T18:49:44.895Z,27.20
2022-10-22T18:52:19.983Z,28.90
2022-10-22T18:54:55.118Z,29.70
2022-10-22T18:57:30.184Z,31.50
2022-10-22T19:00:05.903Z,30.60
2022-10-22T19:02:41.366Z,32.00
2022-10-22T19:05:16.713Z,34.20
2022-10-22T19:07:51.985Z,32.20
2022-10-22T19:16:24.153Z,30.20
2022-10-22T19:19:02.359Z,30.20
2022-10-22T19:21:37.649Z,29.80
2022-10-22T19:24:13.135Z,29.50
2022-10-22T19:26:48.807Z,30.80
2022-10-22T19:29:24.304Z,29.80
2022-10-22T19:31:59.742Z,29.60
2022-10-22T19:34:35.039Z,33.30
2022-10-22T19:37:10.229Z,30.70
2022-10-22T19:39:45.482Z,30.80
2022-10-22T19:42:21.515Z,30.90
2022-10-22T19:44:56.723Z,29.60
2022-10-22T19:47:32.014Z,28.50
2022-10-22T19:50:07.763Z,26.60
2022-10-22T19:52:43.341Z,29.80
2022-10-22T19:55:18.986Z,29.80
2022-10-22T19:57:54.319Z,29.80
2022-10-22T20:00:29.701Z,27.00
2022-10-22T20:03:05.198Z,31.10
2022-10-22T20:05:41.278Z,30.20
2022-10-22T20:08:16.628Z,26.30
2022-10-22T20:10:51.975Z,26.80
2022-10-22T20:13:27.386Z,29.40
2022-10-22T20:16:02.778Z,27.00
2022-10-22T20:18:39.086Z,29.30
2022-10-22T20:21:15.973Z,30.50
2022-10-22T20:23:52.888Z,29.40
2022-10-22T20:26:29.085Z,27.50
2022-10-22T20:29:04.391Z,26.60
2022-10-22T20:31:39.586Z,26.10
2022-10-22T20:34:14.971Z,29.30
2022-10-22T20:36:50.322Z,29.30
2022-10-22T20:39:25.499Z,27.90
2022-10-22T20:42:00.768Z,28.10
2022-10-22T20:44:35.969Z,27.60
2022-10-22T20:47:13.473Z,30.50
2022-10-22T20:49:48.839Z,29.20
2022-10-22T20:52:24.118Z,30.30
2022-10-22T20:54:59.384Z,30.20
2022-10-22T20:57:34.583Z,30.60
2022-10-22T21:00:10.883Z,28.60
2022-10-22T21:02:46.337Z,29.70
2022-10-22T21:05:22.066Z,29.50
2022-10-22T21:07:58.519Z,30.90
2022-10-22T21:10:34.367Z,28.80
2022-10-22T21:13:10.756Z,31.30
2022-10-22T21:15:46.400Z,27.70
2022-10-22T21:18:21.764Z,28.20
2022-10-22T21:20:56.993Z,28.00
2022-10-22T21:23:32.313Z,30.10
2022-10-22T21:26:07.652Z,29.00
2022-10-22T21:28:42.893Z,31.80
2022-10-22T21:31:22.192Z,28.30
2022-10-22T21:33:57.752Z,31.70
2022-10-22T21:36:33.175Z,31.20
2022-10-22T21:39:08.560Z,33.30
2022-10-22T21:41:43.861Z,33.30
2022-10-22T21:44:19.276Z,33.90
2022-10-22T21:46:54.535Z,32.80
2022-10-22T21:49:29.713Z,29.60
2022-10-22T21:52:07.080Z,29.80
2022-10-22T21:54:42.425Z,31.40
2022-10-22T21:57:17.741Z,28.90
2022-10-22T21:59:52.962Z,29.40
2022-10-22T22:02:28.899Z,28.20
2022-10-22T22:05:04.246Z,27.70
2022-10-22T22:07:40.357Z,27.40
2022-10-22T22:10:15.659Z,25.90
2022-10-22T22:12:51.803Z,29.00
2022-10-22T22:15:27.087Z,27.00
2022-10-22T22:18:02.802Z,24.00
2022-10-22T22:20:39.157Z,26.50
2022-10-22T22:23:14.503Z,25.10
2022-10-22T22:25:49.881Z,24.60
2022-10-22T22:28:25.256Z,24.80
2022-10-22T22:31:00.783Z,24.90
2022-10-22T22:33:36.058Z,24.50
2022-10-22T22:36:11.783Z,24.20
2022-10-22T22:38:47.215Z,23.80
2022-10-22T22:41:22.678Z,23.30
2022-10-22T22:43:57.993Z,22.90
2022-10-22T22:46:33.559Z,22.60
2022-10-22T22:49:09.288Z,23.30
2022-10-22T22:51:45.088Z,22.40
2022-10-22T22:54:20.311Z,23.10
2022-10-22T22:56:55.606Z,23.40
2022-10-22T22:59:30.851Z,23.80
2022-10-22T23:02:06.171Z,23.10
2022-10-22T23:04:41.546Z,23.30
2022-10-22T23:07:16.841Z,23.50
2022-10-22T23:09:52.360Z,22.90
2022-10-22T23:12:29.026Z,23.40
2022-10-22T23:15:04.501Z,23.10
2022-10-22T23:17:39.757Z,22.90
2022-10-22T23:20:14.995Z,22.50
2022-10-22T23:22:50.301Z,25.30
2022-10-22T23:25:25.667Z,23.60
2022-10-22T23:28:00.881Z,25.10
2022-10-22T23:30:36.117Z,23.70
2022-10-22T23:33:11.337Z,24.20
2022-10-22T23:35:46.850Z,24.10
2022-10-22T23:38:22.154Z,26.80
2022-10-22T23:40:57.906Z,27.60
2022-10-22T23:43:36.065Z,26.60
2022-10-22T23:46:12.775Z,23.40
2022-10-22T23:48:48.070Z,28.10
2022-10-22T23:51:23.504Z,26.70
2022-10-22T23:53:59.475Z,27.70
2022-10-22T23:56:35.630Z,33.40
2022-10-22T23:59:11.090Z,33.10
